Fri, 30 Jul 2021 21:50:59 UTC

Information for RPM xstream-1.3.1-5.fc19.noarch.rpm

ID3763861
Namexstream
Version1.3.1
Release5.fc19
Epoch
Archnoarch
SummaryJava XML serialization library
DescriptionXStream is a simple library to serialize objects to XML and back again. A high level facade is supplied that simplifies common use cases. Custom objects can be serialized without need for specifying mappings. Speed and low memory footprint are a crucial part of the design, making it suitable for large object graphs or systems with high message throughput. No information is duplicated that can be obtained via reflection. This results in XML that is easier to read for humans and more compact than native Java serialization. XStream serializes internal fields, including private and final. Supports non-public and inner classes. Classes are not required to have default constructor. Duplicate references encountered in the object-model will be maintained. Supports circular references. By implementing an interface, XStream can serialize directly to/from any tree structure (not just XML). Strategies can be registered allowing customization of how particular types are represented as XML. When an exception occurs due to malformed XML, detailed diagnostics are provided to help isolate and fix the problem.
Build Time2013-02-19 05:08:20 GMT
Size395,792
b84856e8634a409df855f254458b9e94
LicenseBSD
Buildrootf19-build-1602991-271384
Provides
mvn(com.thoughtworks.xstream:xstream) = 1.3.1
mvn(com.thoughtworks.xstream:xstream-parent) = 1.3.1
xstream = 1.3.1-5.fc19
Obsoletes No Obsoletes
Conflicts No Conflicts
Requires
/bin/sh
/bin/sh
java
jpackage-utils
rpmlib(CompressedFileNames) <= 3.0.4-1
rpmlib(FileDigests) <= 4.6.0-1
rpmlib(PayloadFilesHavePrefix) <= 4.0-1
rpmlib(PayloadIsXz) <= 5.2-1
xpp3-minimal
Recommends No Recommends
Suggests No Suggests
Supplements No Supplements
Enhances No Enhances
Files
1 through 9 of 9
Name ascending sort Size
/usr/share/doc/xstream-1.3.14,096
/usr/share/doc/xstream-1.3.1/LICENSE.txt1,527
/usr/share/java/xstream-1.3.1.jar428,435
/usr/share/java/xstream-benchmark-1.3.1.jar19,708
/usr/share/java/xstream-benchmark.jar27
/usr/share/java/xstream.jar17
/usr/share/maven-fragments/xstream624
/usr/share/maven-poms/JPP-xstream-parent.pom13,989
/usr/share/maven-poms/JPP-xstream.pom11,433
Component of
Page:
1 through 50 of 666 >>>
Buildroot descending sort Created State
f19-build-1958833-347387 2014-01-07 11:59:31 expired
f19-build-1922582-337762 2013-11-26 07:18:59 expired
f19-build-1903776-332962 2013-11-06 20:13:33 expired
f19-build-1886337-329004 2013-10-19 21:56:28 expired
f19-build-1881778-328072 2013-10-15 10:02:08 expired
f19-build-1881777-328072 2013-10-15 10:02:07 expired
f19-build-1878991-327426 2013-10-11 10:06:43 expired
f19-build-1873251-325973 2013-10-04 16:39:38 expired
f19-build-1864657-324479 2013-09-28 10:00:19 expired
f19-build-1858711-323186 2013-09-23 08:12:35 expired
f19-build-1858695-323186 2013-09-23 07:59:19 expired
f19-build-1848135-320995 2013-09-12 14:47:33 expired
f19-build-1847070-320819 2013-09-11 20:50:15 expired
f19-build-1845512-320433 2013-09-10 13:30:18 expired
f19-build-1845099-320341 2013-09-10 09:22:47 expired
f19-build-1839810-319376 2013-09-05 09:25:23 expired
f19-build-1839744-319376 2013-09-05 07:02:13 expired
f19-build-1831053-317283 2013-08-29 11:21:35 expired
f19-build-1829775-316979 2013-08-28 15:21:39 expired
f19-build-1824153-315672 2013-08-23 17:12:38 expired
f19-build-1824102-315658 2013-08-23 16:51:27 expired
f19-build-1818162-314381 2013-08-18 20:54:29 expired
f19-build-1818008-314268 2013-08-18 15:24:46 expired
f19-build-1818000-314268 2013-08-18 14:48:03 expired
f19-build-1817864-314268 2013-08-18 04:30:19 expired
f19-build-1817679-314188 2013-08-17 16:58:44 expired
f19-build-1817656-314188 2013-08-17 16:37:04 expired
f19-build-1817644-314188 2013-08-17 16:07:17 expired
f19-build-1809586-312745 2013-08-09 13:42:03 expired
f19-build-1806390-312117 2013-08-07 00:47:18 expired
f19-build-1806329-312099 2013-08-06 23:39:06 expired
f19-build-1806067-312068 2013-08-06 19:44:48 expired
f19-build-1806043-312049 2013-08-06 19:26:15 expired
f19-build-1806035-312049 2013-08-06 19:06:08 expired
f19-build-1805127-311909 2013-08-06 11:04:48 expired
f19-build-1805082-311909 2013-08-06 10:28:34 expired
f19-build-1796677-311547 2013-08-04 11:23:14 expired
f19-build-1794418-311547 2013-08-04 09:11:39 expired
f19-build-1760794-311166 2013-08-01 20:44:19 expired
f19-build-1760784-311166 2013-08-01 20:22:04 expired
f19-build-1760345-311038 2013-08-01 11:31:04 expired
f19-build-1760328-311038 2013-08-01 11:10:53 expired
f19-build-1760273-311038 2013-08-01 10:25:58 expired
f19-build-1760245-311034 2013-08-01 10:11:52 expired
f19-build-1759122-310813 2013-07-31 13:29:37 expired
f19-build-1754568-309920 2013-07-28 19:00:19 expired
f19-build-1754400-309920 2013-07-28 18:05:04 expired
f19-build-1749697-308838 2013-07-24 14:07:07 expired
f19-build-1746386-308184 2013-07-22 10:55:38 expired
f19-build-1740877-307036 2013-07-17 13:48:24 expired